sensor_id;sensor_type;location;lat;lon;timestamp;P1;durP1;ratioP1;P2;durP2;ratioP2
55537;SDS011;41383;51.418;7.286;2023-08-31T00:01:46;9.10;;;3.25;;
55537;SDS011;41383;51.418;7.286;2023-08-31T00:04:13;12.25;;;3.05;;
55537;SDS011;41383;51.418;7.286;2023-08-31T00:06:40;10.73;;;2.70;;
55537;SDS011;41383;51.418;7.286;2023-08-31T00:09:05;6.40;;;3.47;;
55537;SDS011;41383;51.418;7.286;2023-08-31T00:11:34;5.95;;;2.55;;
55537;SDS011;41383;51.418;7.286;2023-08-31T00:14:02;8.73;;;3.03;;
55537;SDS011;41383;51.418;7.286;2023-08-31T00:16:28;8.15;;;2.88;;
55537;SDS011;41383;51.418;7.286;2023-08-31T00:18:53;5.30;;;2.30;;
55537;SDS011;41383;51.418;7.286;2023-08-31T00:21:21;6.45;;;2.72;;
55537;SDS011;41383;51.418;7.286;2023-08-31T00:23:47;7.65;;;3.13;;
55537;SDS011;41383;51.418;7.286;2023-08-31T00:26:12;11.82;;;3.65;;
55537;SDS011;41383;51.418;7.286;2023-08-31T00:28:37;14.50;;;3.58;;
55537;SDS011;41383;51.418;7.286;2023-08-31T00:31:03;5.75;;;2.80;;
55537;SDS011;41383;51.418;7.286;2023-08-31T00:33:29;10.18;;;3.53;;
55537;SDS011;41383;51.418;7.286;2023-08-31T00:35:55;7.07;;;2.20;;
55537;SDS011;41383;51.418;7.286;2023-08-31T00:38:21;8.05;;;2.80;;
55537;SDS011;41383;51.418;7.286;2023-08-31T00:40:46;7.05;;;2.70;;
55537;SDS011;41383;51.418;7.286;2023-08-31T00:43:12;10.15;;;3.70;;
55537;SDS011;41383;51.418;7.286;2023-08-31T00:45:40;7.07;;;2.67;;
55537;SDS011;41383;51.418;7.286;2023-08-31T00:48:06;9.13;;;2.70;;
55537;SDS011;41383;51.418;7.286;2023-08-31T00:50:31;7.50;;;2.88;;
55537;SDS011;41383;51.418;7.286;2023-08-31T00:52:57;6.88;;;3.67;;
55537;SDS011;41383;51.418;7.286;2023-08-31T00:55:22;8.43;;;2.95;;
55537;SDS011;41383;51.418;7.286;2023-08-31T00:57:48;7.20;;;2.63;;
55537;SDS011;41383;51.418;7.286;2023-08-31T01:00:14;8.18;;;3.80;;
55537;SDS011;41383;51.418;7.286;2023-08-31T01:05:44;9.27;;;3.60;;
55537;SDS011;41383;51.418;7.286;2023-08-31T01:14:05;10.40;;;4.40;;
55537;SDS011;41383;51.418;7.286;2023-08-31T01:16:36;9.35;;;3.45;;
55537;SDS011;41383;51.418;7.286;2023-08-31T01:19:08;6.80;;;3.65;;
55537;SDS011;41383;51.418;7.286;2023-08-31T01:21:50;10.27;;;3.63;;
55537;SDS011;41383;51.418;7.286;2023-08-31T01:24:19;8.25;;;3.08;;
55537;SDS011;41383;51.418;7.286;2023-08-31T01:26:44;7.72;;;3.40;;
55537;SDS011;41383;51.418;7.286;2023-08-31T01:29:12;9.65;;;3.28;;
55537;SDS011;41383;51.418;7.286;2023-08-31T01:31:43;6.40;;;3.15;;
55537;SDS011;41383;51.418;7.286;2023-08-31T01:34:10;8.63;;;3.65;;
55537;SDS011;41383;51.418;7.286;2023-08-31T01:36:36;14.15;;;4.38;;
55537;SDS011;41383;51.418;7.286;2023-08-31T01:39:19;10.82;;;3.40;;
55537;SDS011;41383;51.418;7.286;2023-08-31T01:41:51;10.40;;;4.88;;
55537;SDS011;41383;51.418;7.286;2023-08-31T01:44:21;12.50;;;5.13;;
55537;SDS011;41383;51.418;7.286;2023-08-31T01:46:46;13.25;;;3.90;;
55537;SDS011;41383;51.418;7.286;2023-08-31T01:49:15;8.18;;;3.38;;
55537;SDS011;41383;51.418;7.286;2023-08-31T01:51:41;12.55;;;3.30;;
55537;SDS011;41383;51.418;7.286;2023-08-31T01:54:06;10.20;;;3.63;;
55537;SDS011;41383;51.418;7.286;2023-08-31T01:56:31;9.25;;;3.88;;
55537;SDS011;41383;51.418;7.286;2023-08-31T01:58:57;11.90;;;3.33;;
55537;SDS011;41383;51.418;7.286;2023-08-31T02:01:22;6.30;;;3.25;;
55537;SDS011;41383;51.418;7.286;2023-08-31T02:03:47;10.07;;;3.72;;
55537;SDS011;41383;51.418;7.286;2023-08-31T02:06:12;8.20;;;3.13;;
55537;SDS011;41383;51.418;7.286;2023-08-31T02:08:38;10.03;;;3.33;;
55537;SDS011;41383;51.418;7.286;2023-08-31T02:11:03;10.05;;;4.18;;
55537;SDS011;41383;51.418;7.286;2023-08-31T02:13:29;8.82;;;4.05;;
55537;SDS011;41383;51.418;7.286;2023-08-31T02:15:55;11.48;;;3.35;;
55537;SDS011;41383;51.418;7.286;2023-08-31T02:18:20;8.20;;;3.28;;
55537;SDS011;41383;51.418;7.286;2023-08-31T02:20:45;8.95;;;4.18;;
55537;SDS011;41383;51.418;7.286;2023-08-31T02:23:11;7.18;;;3.45;;
55537;SDS011;41383;51.418;7.286;2023-08-31T02:25:37;9.88;;;3.42;;
55537;SDS011;41383;51.418;7.286;2023-08-31T02:28:02;8.73;;;4.22;;
55537;SDS011;41383;51.418;7.286;2023-08-31T02:30:28;7.57;;;3.00;;
55537;SDS011;41383;51.418;7.286;2023-08-31T02:32:53;9.65;;;3.78;;
55537;SDS011;41383;51.418;7.286;2023-08-31T02:35:19;7.90;;;3.58;;
55537;SDS011;41383;51.418;7.286;2023-08-31T02:37:44;8.40;;;4.25;;
55537;SDS011;41383;51.418;7.286;2023-08-31T02:40:09;9.20;;;4.47;;
55537;SDS011;41383;51.418;7.286;2023-08-31T02:42:35;12.50;;;4.32;;
55537;SDS011;41383;51.418;7.286;2023-08-31T02:45:00;14.93;;;4.53;;
55537;SDS011;41383;51.418;7.286;2023-08-31T02:47:26;12.10;;;4.03;;
55537;SDS011;41383;51.418;7.286;2023-08-31T02:49:51;10.53;;;5.23;;
55537;SDS011;41383;51.418;7.286;2023-08-31T02:52:16;9.13;;;4.20;;
55537;SDS011;41383;51.418;7.286;2023-08-31T02:54:41;8.83;;;4.13;;
55537;SDS011;41383;51.418;7.286;2023-08-31T02:57:07;9.52;;;3.95;;
55537;SDS011;41383;51.418;7.286;2023-08-31T02:59:32;8.95;;;4.38;;
55537;SDS011;41383;51.418;7.286;2023-08-31T03:02:00;9.25;;;3.72;;
55537;SDS011;41383;51.418;7.286;2023-08-31T03:04:29;8.68;;;4.28;;
55537;SDS011;41383;51.418;7.286;2023-08-31T03:06:54;9.32;;;3.63;;
55537;SDS011;41383;51.418;7.286;2023-08-31T03:09:19;9.05;;;3.92;;
55537;SDS011;41383;51.418;7.286;2023-08-31T03:11:45;8.65;;;4.00;;
55537;SDS011;41383;51.418;7.286;2023-08-31T03:14:10;11.73;;;4.60;;
55537;SDS011;41383;51.418;7.286;2023-08-31T03:16:36;10.23;;;5.00;;
55537;SDS011;41383;51.418;7.286;2023-08-31T03:19:01;11.77;;;4.30;;
55537;SDS011;41383;51.418;7.286;2023-08-31T03:21:26;12.90;;;5.03;;
55537;SDS011;41383;51.418;7.286;2023-08-31T03:23:52;9.23;;;4.73;;
55537;SDS011;41383;51.418;7.286;2023-08-31T03:26:17;14.18;;;4.90;;
55537;SDS011;41383;51.418;7.286;2023-08-31T03:28:42;9.13;;;4.53;;
55537;SDS011;41383;51.418;7.286;2023-08-31T03:31:08;8.82;;;4.88;;
55537;SDS011;41383;51.418;7.286;2023-08-31T03:33:33;8.32;;;4.65;;
55537;SDS011;41383;51.418;7.286;2023-08-31T03:36:04;10.55;;;5.00;;
55537;SDS011;41383;51.418;7.286;2023-08-31T03:38:31;13.60;;;5.68;;
55537;SDS011;41383;51.418;7.286;2023-08-31T03:40:57;9.77;;;5.68;;
55537;SDS011;41383;51.418;7.286;2023-08-31T03:43:22;13.90;;;6.57;;
55537;SDS011;41383;51.418;7.286;2023-08-31T03:45:48;8.95;;;5.15;;
55537;SDS011;41383;51.418;7.286;2023-08-31T03:48:14;11.07;;;5.93;;
55537;SDS011;41383;51.418;7.286;2023-08-31T03:50:39;8.98;;;5.68;;
55537;SDS011;41383;51.418;7.286;2023-08-31T03:53:04;7.80;;;4.80;;
55537;SDS011;41383;51.418;7.286;2023-08-31T03:55:30;13.48;;;6.03;;
55537;SDS011;41383;51.418;7.286;2023-08-31T03:57:55;10.07;;;5.88;;
55537;SDS011;41383;51.418;7.286;2023-08-31T04:00:20;9.30;;;5.63;;
55537;SDS011;41383;51.418;7.286;2023-08-31T04:02:46;9.13;;;5.17;;
55537;SDS011;41383;51.418;7.286;2023-08-31T04:05:11;9.20;;;5.20;;
55537;SDS011;41383;51.418;7.286;2023-08-31T04:07:36;9.52;;;5.47;;
55537;SDS011;41383;51.418;7.286;2023-08-31T04:10:02;10.43;;;6.63;;
55537;SDS011;41383;51.418;7.286;2023-08-31T04:12:28;10.57;;;5.72;;
55537;SDS011;41383;51.418;7.286;2023-08-31T04:14:55;11.63;;;5.65;;
55537;SDS011;41383;51.418;7.286;2023-08-31T04:17:20;12.38;;;6.95;;
55537;SDS011;41383;51.418;7.286;2023-08-31T04:19:46;14.60;;;6.80;;
55537;SDS011;41383;51.418;7.286;2023-08-31T04:22:11;11.43;;;7.13;;
55537;SDS011;41383;51.418;7.286;2023-08-31T04:24:36;13.90;;;7.55;;
55537;SDS011;41383;51.418;7.286;2023-08-31T04:27:01;11.70;;;7.33;;
55537;SDS011;41383;51.418;7.286;2023-08-31T04:29:27;12.63;;;7.43;;
55537;SDS011;41383;51.418;7.286;2023-08-31T04:31:52;11.83;;;7.53;;
55537;SDS011;41383;51.418;7.286;2023-08-31T04:34:17;13.07;;;6.72;;
55537;SDS011;41383;51.418;7.286;2023-08-31T04:36:43;11.27;;;7.03;;
55537;SDS011;41383;51.418;7.286;2023-08-31T04:39:08;15.30;;;8.57;;
55537;SDS011;41383;51.418;7.286;2023-08-31T04:41:33;13.07;;;7.63;;
55537;SDS011;41383;51.418;7.286;2023-08-31T04:43:58;13.43;;;7.73;;
55537;SDS011;41383;51.418;7.286;2023-08-31T04:46:24;14.00;;;7.30;;
55537;SDS011;41383;51.418;7.286;2023-08-31T04:48:49;10.70;;;6.53;;
55537;SDS011;41383;51.418;7.286;2023-08-31T04:51:27;14.80;;;7.47;;
55537;SDS011;41383;51.418;7.286;2023-08-31T04:53:57;13.82;;;8.27;;
55537;SDS011;41383;51.418;7.286;2023-08-31T04:56:23;16.05;;;8.43;;
55537;SDS011;41383;51.418;7.286;2023-08-31T04:58:48;13.27;;;8.00;;
55537;SDS011;41383;51.418;7.286;2023-08-31T05:01:14;11.70;;;8.30;;
55537;SDS011;41383;51.418;7.286;2023-08-31T05:03:39;15.68;;;7.00;;
55537;SDS011;41383;51.418;7.286;2023-08-31T05:06:04;15.75;;;9.10;;
55537;SDS011;41383;51.418;7.286;2023-08-31T05:08:30;15.23;;;7.33;;
55537;SDS011;41383;51.418;7.286;2023-08-31T05:10:55;15.20;;;8.95;;
55537;SDS011;41383;51.418;7.286;2023-08-31T05:13:20;10.03;;;6.27;;
55537;SDS011;41383;51.418;7.286;2023-08-31T05:15:46;14.47;;;8.27;;
55537;SDS011;41383;51.418;7.286;2023-08-31T05:18:11;14.97;;;8.97;;
55537;SDS011;41383;51.418;7.286;2023-08-31T05:20:36;14.67;;;9.47;;
55537;SDS011;41383;51.418;7.286;2023-08-31T05:23:01;14.50;;;9.20;;
55537;SDS011;41383;51.418;7.286;2023-08-31T05:25:27;18.30;;;10.35;;
55537;SDS011;41383;51.418;7.286;2023-08-31T05:27:52;14.53;;;8.90;;
55537;SDS011;41383;51.418;7.286;2023-08-31T05:30:17;17.93;;;10.10;;
55537;SDS011;41383;51.418;7.286;2023-08-31T05:32:42;18.90;;;9.80;;
55537;SDS011;41383;51.418;7.286;2023-08-31T05:35:08;16.50;;;8.83;;
55537;SDS011;41383;51.418;7.286;2023-08-31T05:37:33;18.65;;;9.15;;
55537;SDS011;41383;51.418;7.286;2023-08-31T05:40:00;15.82;;;10.02;;
55537;SDS011;41383;51.418;7.286;2023-08-31T05:42:25;16.95;;;8.60;;
55537;SDS011;41383;51.418;7.286;2023-08-31T05:44:51;13.65;;;8.27;;
55537;SDS011;41383;51.418;7.286;2023-08-31T05:47:16;15.25;;;8.60;;
55537;SDS011;41383;51.418;7.286;2023-08-31T05:49:42;19.58;;;9.45;;
55537;SDS011;41383;51.418;7.286;2023-08-31T05:52:07;15.60;;;9.50;;
55537;SDS011;41383;51.418;7.286;2023-08-31T05:54:33;13.90;;;9.27;;
55537;SDS011;41383;51.418;7.286;2023-08-31T05:56:58;16.65;;;9.75;;
55537;SDS011;41383;51.418;7.286;2023-08-31T05:59:24;16.07;;;9.63;;
55537;SDS011;41383;51.418;7.286;2023-08-31T06:01:49;16.85;;;10.45;;
55537;SDS011;41383;51.418;7.286;2023-08-31T06:04:14;17.60;;;10.30;;
55537;SDS011;41383;51.418;7.286;2023-08-31T06:06:40;17.20;;;11.63;;
55537;SDS011;41383;51.418;7.286;2023-08-31T06:09:05;19.33;;;9.57;;
55537;SDS011;41383;51.418;7.286;2023-08-31T06:11:32;16.13;;;8.63;;
55537;SDS011;41383;51.418;7.286;2023-08-31T06:13:57;13.82;;;9.20;;
55537;SDS011;41383;51.418;7.286;2023-08-31T06:16:22;13.20;;;9.93;;
55537;SDS011;41383;51.418;7.286;2023-08-31T06:18:48;16.90;;;8.43;;
55537;SDS011;41383;51.418;7.286;2023-08-31T06:21:14;15.40;;;8.47;;
55537;SDS011;41383;51.418;7.286;2023-08-31T06:23:39;13.87;;;8.80;;
55537;SDS011;41383;51.418;7.286;2023-08-31T06:26:04;12.73;;;8.00;;
55537;SDS011;41383;51.418;7.286;2023-08-31T06:28:30;13.67;;;7.77;;
55537;SDS011;41383;51.418;7.286;2023-08-31T06:30:55;12.02;;;8.40;;
55537;SDS011;41383;51.418;7.286;2023-08-31T06:33:20;10.35;;;6.72;;
55537;SDS011;41383;51.418;7.286;2023-08-31T06:35:46;11.25;;;7.30;;
55537;SDS011;41383;51.418;7.286;2023-08-31T06:38:16;13.93;;;8.90;;
55537;SDS011;41383;51.418;7.286;2023-08-31T06:40:42;12.35;;;7.75;;
55537;SDS011;41383;51.418;7.286;2023-08-31T06:43:08;11.05;;;6.88;;
55537;SDS011;41383;51.418;7.286;2023-08-31T06:45:33;11.68;;;7.82;;
55537;SDS011;41383;51.418;7.286;2023-08-31T06:47:59;11.00;;;8.10;;
55537;SDS011;41383;51.418;7.286;2023-08-31T06:50:24;10.75;;;6.80;;
55537;SDS011;41383;51.418;7.286;2023-08-31T06:52:50;11.43;;;8.07;;
55537;SDS011;41383;51.418;7.286;2023-08-31T06:55:15;9.60;;;6.80;;
55537;SDS011;41383;51.418;7.286;2023-08-31T06:57:40;16.20;;;7.60;;
55537;SDS011;41383;51.418;7.286;2023-08-31T07:00:07;13.50;;;7.90;;
55537;SDS011;41383;51.418;7.286;2023-08-31T07:02:33;11.63;;;7.25;;
55537;SDS011;41383;51.418;7.286;2023-08-31T07:04:59;14.77;;;6.63;;
55537;SDS011;41383;51.418;7.286;2023-08-31T07:07:25;10.45;;;6.40;;
55537;SDS011;41383;51.418;7.286;2023-08-31T07:09:50;11.15;;;6.47;;
55537;SDS011;41383;51.418;7.286;2023-08-31T07:12:16;10.00;;;6.80;;
55537;SDS011;41383;51.418;7.286;2023-08-31T07:14:41;10.40;;;6.68;;
55537;SDS011;41383;51.418;7.286;2023-08-31T07:17:06;11.48;;;6.38;;
55537;SDS011;41383;51.418;7.286;2023-08-31T07:19:34;8.00;;;5.07;;
55537;SDS011;41383;51.418;7.286;2023-08-31T07:22:00;8.50;;;5.07;;
55537;SDS011;41383;51.418;7.286;2023-08-31T07:24:26;11.50;;;5.45;;
55537;SDS011;41383;51.418;7.286;2023-08-31T07:26:51;14.27;;;4.97;;
55537;SDS011;41383;51.418;7.286;2023-08-31T07:29:17;14.05;;;5.57;;
55537;SDS011;41383;51.418;7.286;2023-08-31T07:31:42;8.80;;;4.90;;
55537;SDS011;41383;51.418;7.286;2023-08-31T07:34:07;11.90;;;6.32;;
55537;SDS011;41383;51.418;7.286;2023-08-31T07:36:33;13.82;;;5.70;;
55537;SDS011;41383;51.418;7.286;2023-08-31T07:38:58;8.85;;;5.22;;
55537;SDS011;41383;51.418;7.286;2023-08-31T07:41:23;9.77;;;5.15;;
55537;SDS011;41383;51.418;7.286;2023-08-31T07:43:49;8.00;;;4.90;;
55537;SDS011;41383;51.418;7.286;2023-08-31T07:46:14;11.55;;;5.22;;
55537;SDS011;41383;51.418;7.286;2023-08-31T07:48:41;9.77;;;4.40;;
55537;SDS011;41383;51.418;7.286;2023-08-31T07:51:07;7.82;;;3.60;;
55537;SDS011;41383;51.418;7.286;2023-08-31T07:53:32;10.38;;;4.75;;
55537;SDS011;41383;51.418;7.286;2023-08-31T07:55:58;12.85;;;3.83;;
55537;SDS011;41383;51.418;7.286;2023-08-31T07:58:23;6.30;;;3.53;;
55537;SDS011;41383;51.418;7.286;2023-08-31T08:00:49;12.48;;;4.47;;
55537;SDS011;41383;51.418;7.286;2023-08-31T08:03:18;6.38;;;4.07;;
55537;SDS011;41383;51.418;7.286;2023-08-31T08:05:43;9.40;;;4.60;;
55537;SDS011;41383;51.418;7.286;2023-08-31T08:08:08;5.93;;;3.50;;
55537;SDS011;41383;51.418;7.286;2023-08-31T08:10:34;9.88;;;3.88;;
55537;SDS011;41383;51.418;7.286;2023-08-31T08:12:59;8.68;;;4.10;;
55537;SDS011;41383;51.418;7.286;2023-08-31T08:15:25;7.07;;;3.43;;
55537;SDS011;41383;51.418;7.286;2023-08-31T08:17:50;9.48;;;3.88;;
55537;SDS011;41383;51.418;7.286;2023-08-31T08:20:15;7.68;;;3.22;;
55537;SDS011;41383;51.418;7.286;2023-08-31T08:22:41;7.90;;;3.83;;
55537;SDS011;41383;51.418;7.286;2023-08-31T08:25:06;8.32;;;2.92;;
55537;SDS011;41383;51.418;7.286;2023-08-31T08:27:32;16.67;;;4.60;;
55537;SDS011;41383;51.418;7.286;2023-08-31T08:30:01;7.75;;;3.22;;
55537;SDS011;41383;51.418;7.286;2023-08-31T08:32:27;8.63;;;2.70;;
55537;SDS011;41383;51.418;7.286;2023-08-31T08:34:52;7.07;;;2.77;;
55537;SDS011;41383;51.418;7.286;2023-08-31T08:37:18;7.35;;;2.28;;
55537;SDS011;41383;51.418;7.286;2023-08-31T08:39:47;8.05;;;2.78;;
55537;SDS011;41383;51.418;7.286;2023-08-31T08:42:13;5.28;;;2.15;;
55537;SDS011;41383;51.418;7.286;2023-08-31T08:44:39;8.30;;;3.55;;
55537;SDS011;41383;51.418;7.286;2023-08-31T08:47:06;6.90;;;2.45;;
55537;SDS011;41383;51.418;7.286;2023-08-31T08:49:32;8.43;;;2.78;;
55537;SDS011;41383;51.418;7.286;2023-08-31T08:51:58;7.78;;;3.22;;
55537;SDS011;41383;51.418;7.286;2023-08-31T08:54:24;7.95;;;3.15;;
55537;SDS011;41383;51.418;7.286;2023-08-31T08:56:50;9.60;;;2.88;;
55537;SDS011;41383;51.418;7.286;2023-08-31T08:59:16;6.95;;;3.20;;
55537;SDS011;41383;51.418;7.286;2023-08-31T09:01:41;6.03;;;3.33;;
55537;SDS011;41383;51.418;7.286;2023-08-31T09:04:08;9.82;;;3.20;;
55537;SDS011;41383;51.418;7.286;2023-08-31T09:06:34;8.95;;;3.05;;
55537;SDS011;41383;51.418;7.286;2023-08-31T09:09:00;6.60;;;2.92;;
55537;SDS011;41383;51.418;7.286;2023-08-31T09:11:25;9.70;;;3.47;;
55537;SDS011;41383;51.418;7.286;2023-08-31T09:13:51;15.07;;;3.70;;
55537;SDS011;41383;51.418;7.286;2023-08-31T09:16:28;8.43;;;3.03;;
55537;SDS011;41383;51.418;7.286;2023-08-31T09:18:55;7.40;;;3.13;;
55537;SDS011;41383;51.418;7.286;2023-08-31T09:21:21;7.93;;;2.85;;
55537;SDS011;41383;51.418;7.286;2023-08-31T09:23:55;6.63;;;2.40;;
55537;SDS011;41383;51.418;7.286;2023-08-31T09:26:23;5.35;;;2.35;;
55537;SDS011;41383;51.418;7.286;2023-08-31T09:28:49;6.03;;;2.58;;
55537;SDS011;41383;51.418;7.286;2023-08-31T09:31:14;9.40;;;2.65;;
55537;SDS011;41383;51.418;7.286;2023-08-31T09:33:40;7.03;;;2.70;;
55537;SDS011;41383;51.418;7.286;2023-08-31T09:36:17;8.68;;;2.92;;
55537;SDS011;41383;51.418;7.286;2023-08-31T09:38:43;13.52;;;2.20;;
55537;SDS011;41383;51.418;7.286;2023-08-31T09:41:09;5.03;;;2.00;;
55537;SDS011;41383;51.418;7.286;2023-08-31T09:43:34;5.63;;;2.47;;
55537;SDS011;41383;51.418;7.286;2023-08-31T09:46:00;6.07;;;2.22;;
55537;SDS011;41383;51.418;7.286;2023-08-31T09:48:27;6.45;;;2.30;;
55537;SDS011;41383;51.418;7.286;2023-08-31T09:50:54;7.05;;;2.42;;
55537;SDS011;41383;51.418;7.286;2023-08-31T09:53:20;9.82;;;2.38;;
55537;SDS011;41383;51.418;7.286;2023-08-31T09:55:46;10.02;;;2.03;;
55537;SDS011;41383;51.418;7.286;2023-08-31T09:58:16;7.32;;;2.22;;
55537;SDS011;41383;51.418;7.286;2023-08-31T10:00:43;12.13;;;3.80;;
55537;SDS011;41383;51.418;7.286;2023-08-31T10:03:09;7.10;;;2.33;;
55537;SDS011;41383;51.418;7.286;2023-08-31T10:05:39;12.82;;;2.22;;
55537;SDS011;41383;51.418;7.286;2023-08-31T10:08:05;6.07;;;1.50;;
55537;SDS011;41383;51.418;7.286;2023-08-31T10:10:32;5.25;;;1.30;;
55537;SDS011;41383;51.418;7.286;2023-08-31T10:12:58;10.05;;;2.15;;
55537;SDS011;41383;51.418;7.286;2023-08-31T10:15:24;6.43;;;1.85;;
55537;SDS011;41383;51.418;7.286;2023-08-31T10:17:55;7.40;;;2.03;;
55537;SDS011;41383;51.418;7.286;2023-08-31T10:20:21;4.43;;;1.25;;
55537;SDS011;41383;51.418;7.286;2023-08-31T10:22:46;3.58;;;1.38;;
55537;SDS011;41383;51.418;7.286;2023-08-31T10:25:12;10.77;;;1.63;;
55537;SDS011;41383;51.418;7.286;2023-08-31T10:27:41;4.70;;;1.73;;
55537;SDS011;41383;51.418;7.286;2023-08-31T10:30:28;11.05;;;3.50;;
55537;SDS011;41383;51.418;7.286;2023-08-31T10:33:02;5.40;;;2.00;;
55537;SDS011;41383;51.418;7.286;2023-08-31T10:43:32;2.85;;;1.27;;
55537;SDS011;41383;51.418;7.286;2023-08-31T10:46:30;7.47;;;1.42;;
55537;SDS011;41383;51.418;7.286;2023-08-31T10:49:12;5.55;;;1.88;;
55537;SDS011;41383;51.418;7.286;2023-08-31T10:51:41;5.40;;;1.90;;
55537;SDS011;41383;51.418;7.286;2023-08-31T10:54:08;5.55;;;1.30;;
55537;SDS011;41383;51.418;7.286;2023-08-31T11:05:14;4.80;;;1.67;;
55537;SDS011;41383;51.418;7.286;2023-08-31T11:07:43;5.32;;;2.72;;
55537;SDS011;41383;51.418;7.286;2023-08-31T11:12:47;6.63;;;1.58;;
55537;SDS011;41383;51.418;7.286;2023-08-31T11:15:15;7.95;;;1.67;;
55537;SDS011;41383;51.418;7.286;2023-08-31T11:17:42;4.95;;;1.75;;
55537;SDS011;41383;51.418;7.286;2023-08-31T11:20:08;9.48;;;3.40;;
55537;SDS011;41383;51.418;7.286;2023-08-31T11:22:41;4.93;;;1.45;;
55537;SDS011;41383;51.418;7.286;2023-08-31T11:25:08;6.68;;;1.67;;
55537;SDS011;41383;51.418;7.286;2023-08-31T11:27:34;5.80;;;1.83;;
55537;SDS011;41383;51.418;7.286;2023-08-31T11:29:59;6.03;;;1.90;;
55537;SDS011;41383;51.418;7.286;2023-08-31T11:32:25;5.53;;;1.38;;
55537;SDS011;41383;51.418;7.286;2023-08-31T11:34:50;6.40;;;1.80;;
55537;SDS011;41383;51.418;7.286;2023-08-31T11:37:16;5.03;;;2.30;;
55537;SDS011;41383;51.418;7.286;2023-08-31T11:39:51;6.90;;;1.75;;
55537;SDS011;41383;51.418;7.286;2023-08-31T11:42:19;3.97;;;1.25;;
55537;SDS011;41383;51.418;7.286;2023-08-31T11:44:48;6.40;;;2.22;;
55537;SDS011;41383;51.418;7.286;2023-08-31T11:47:15;4.45;;;2.00;;
55537;SDS011;41383;51.418;7.286;2023-08-31T11:49:44;10.13;;;2.35;;
55537;SDS011;41383;51.418;7.286;2023-08-31T11:52:11;5.38;;;2.20;;
55537;SDS011;41383;51.418;7.286;2023-08-31T11:54:38;6.13;;;2.35;;
55537;SDS011;41383;51.418;7.286;2023-08-31T11:57:06;7.43;;;2.25;;
55537;SDS011;41383;51.418;7.286;2023-08-31T11:59:34;6.35;;;2.30;;
55537;SDS011;41383;51.418;7.286;2023-08-31T12:02:07;7.97;;;2.30;;
55537;SDS011;41383;51.418;7.286;2023-08-31T12:04:33;4.88;;;1.40;;
55537;SDS011;41383;51.418;7.286;2023-08-31T12:07:09;10.35;;;2.80;;
55537;SDS011;41383;51.418;7.286;2023-08-31T12:09:35;6.63;;;2.22;;
55537;SDS011;41383;51.418;7.286;2023-08-31T12:12:00;7.22;;;1.85;;
55537;SDS011;41383;51.418;7.286;2023-08-31T12:14:26;11.32;;;2.50;;
55537;SDS011;41383;51.418;7.286;2023-08-31T12:16:59;8.05;;;1.98;;
55537;SDS011;41383;51.418;7.286;2023-08-31T12:19:32;6.65;;;1.73;;
55537;SDS011;41383;51.418;7.286;2023-08-31T12:21:58;6.28;;;1.45;;
55537;SDS011;41383;51.418;7.286;2023-08-31T12:24:24;12.35;;;1.88;;
55537;SDS011;41383;51.418;7.286;2023-08-31T12:26:50;8.38;;;1.98;;
55537;SDS011;41383;51.418;7.286;2023-08-31T12:29:15;12.73;;;2.83;;
55537;SDS011;41383;51.418;7.286;2023-08-31T12:31:41;7.05;;;1.85;;
55537;SDS011;41383;51.418;7.286;2023-08-31T12:34:06;4.93;;;2.10;;
55537;SDS011;41383;51.418;7.286;2023-08-31T12:36:35;7.85;;;2.50;;
55537;SDS011;41383;51.418;7.286;2023-08-31T12:39:05;6.20;;;2.08;;
55537;SDS011;41383;51.418;7.286;2023-08-31T12:41:34;6.65;;;2.38;;
55537;SDS011;41383;51.418;7.286;2023-08-31T12:44:00;9.52;;;2.63;;
55537;SDS011;41383;51.418;7.286;2023-08-31T12:46:25;4.57;;;1.70;;
55537;SDS011;41383;51.418;7.286;2023-08-31T12:48:51;7.72;;;2.08;;
55537;SDS011;41383;51.418;7.286;2023-08-31T12:51:17;4.07;;;1.73;;
55537;SDS011;41383;51.418;7.286;2023-08-31T12:53:43;9.50;;;3.22;;
55537;SDS011;41383;51.418;7.286;2023-08-31T12:56:08;5.35;;;1.73;;
55537;SDS011;41383;51.418;7.286;2023-08-31T12:58:33;7.83;;;2.07;;
55537;SDS011;41383;51.418;7.286;2023-08-31T13:00:59;10.55;;;1.75;;
55537;SDS011;41383;51.418;7.286;2023-08-31T13:03:24;4.53;;;1.60;;
55537;SDS011;41383;51.418;7.286;2023-08-31T13:05:50;7.88;;;2.28;;
55537;SDS011;41383;51.418;7.286;2023-08-31T13:08:15;3.65;;;1.38;;
55537;SDS011;41383;51.418;7.286;2023-08-31T13:10:41;3.38;;;1.40;;
55537;SDS011;41383;51.418;7.286;2023-08-31T13:13:06;1.83;;;1.13;;
55537;SDS011;41383;51.418;7.286;2023-08-31T13:15:32;4.95;;;1.67;;
55537;SDS011;41383;51.418;7.286;2023-08-31T13:17:58;8.27;;;2.40;;
55537;SDS011;41383;51.418;7.286;2023-08-31T13:20:23;6.25;;;1.77;;
55537;SDS011;41383;51.418;7.286;2023-08-31T13:22:49;6.60;;;1.60;;
55537;SDS011;41383;51.418;7.286;2023-08-31T13:25:14;6.60;;;2.17;;
55537;SDS011;41383;51.418;7.286;2023-08-31T13:27:40;3.97;;;1.77;;
55537;SDS011;41383;51.418;7.286;2023-08-31T13:30:06;10.55;;;2.03;;
55537;SDS011;41383;51.418;7.286;2023-08-31T13:32:32;7.20;;;2.30;;
55537;SDS011;41383;51.418;7.286;2023-08-31T13:34:58;6.70;;;2.13;;
55537;SDS011;41383;51.418;7.286;2023-08-31T13:37:24;4.88;;;1.55;;
55537;SDS011;41383;51.418;7.286;2023-08-31T13:39:50;7.33;;;2.70;;
55537;SDS011;41383;51.418;7.286;2023-08-31T13:42:17;22.65;;;2.35;;
55537;SDS011;41383;51.418;7.286;2023-08-31T13:44:42;5.93;;;2.22;;
55537;SDS011;41383;51.418;7.286;2023-08-31T13:47:07;6.33;;;2.13;;
55537;SDS011;41383;51.418;7.286;2023-08-31T13:49:33;4.88;;;2.20;;
55537;SDS011;41383;51.418;7.286;2023-08-31T13:51:59;8.23;;;2.67;;
55537;SDS011;41383;51.418;7.286;2023-08-31T13:54:24;7.10;;;2.15;;
55537;SDS011;41383;51.418;7.286;2023-08-31T13:56:50;7.28;;;2.20;;
55537;SDS011;41383;51.418;7.286;2023-08-31T13:59:16;6.68;;;2.20;;
55537;SDS011;41383;51.418;7.286;2023-08-31T14:01:41;4.85;;;2.40;;
55537;SDS011;41383;51.418;7.286;2023-08-31T14:04:07;6.40;;;2.70;;
55537;SDS011;41383;51.418;7.286;2023-08-31T14:06:32;9.40;;;2.40;;
55537;SDS011;41383;51.418;7.286;2023-08-31T14:08:58;7.22;;;2.72;;
55537;SDS011;41383;51.418;7.286;2023-08-31T14:11:23;9.50;;;2.22;;
55537;SDS011;41383;51.418;7.286;2023-08-31T14:13:48;10.52;;;2.90;;
55537;SDS011;41383;51.418;7.286;2023-08-31T14:16:14;4.05;;;1.80;;
55537;SDS011;41383;51.418;7.286;2023-08-31T14:18:39;5.25;;;2.10;;
55537;SDS011;41383;51.418;7.286;2023-08-31T14:21:04;2.93;;;1.50;;
55537;SDS011;41383;51.418;7.286;2023-08-31T14:23:30;5.28;;;1.92;;
55537;SDS011;41383;51.418;7.286;2023-08-31T14:26:02;6.30;;;2.55;;
55537;SDS011;41383;51.418;7.286;2023-08-31T14:28:28;4.90;;;2.10;;
55537;SDS011;41383;51.418;7.286;2023-08-31T14:30:53;4.50;;;1.85;;
55537;SDS011;41383;51.418;7.286;2023-08-31T14:33:19;5.47;;;2.20;;
55537;SDS011;41383;51.418;7.286;2023-08-31T14:35:44;5.97;;;2.20;;
55537;SDS011;41383;51.418;7.286;2023-08-31T14:38:10;5.95;;;2.55;;
55537;SDS011;41383;51.418;7.286;2023-08-31T14:40:38;6.78;;;2.00;;
55537;SDS011;41383;51.418;7.286;2023-08-31T14:43:06;6.53;;;2.08;;
55537;SDS011;41383;51.418;7.286;2023-08-31T14:45:31;4.80;;;2.95;;
55537;SDS011;41383;51.418;7.286;2023-08-31T14:47:56;5.30;;;1.80;;
55537;SDS011;41383;51.418;7.286;2023-08-31T14:50:22;9.30;;;2.30;;
55537;SDS011;41383;51.418;7.286;2023-08-31T14:52:47;5.28;;;3.20;;
55537;SDS011;41383;51.418;7.286;2023-08-31T14:55:12;9.05;;;4.60;;
55537;SDS011;41383;51.418;7.286;2023-08-31T14:57:38;11.40;;;4.05;;
55537;SDS011;41383;51.418;7.286;2023-08-31T15:00:07;9.38;;;4.25;;
55537;SDS011;41383;51.418;7.286;2023-08-31T15:02:33;10.25;;;5.03;;
55537;SDS011;41383;51.418;7.286;2023-08-31T15:04:58;7.53;;;4.10;;
55537;SDS011;41383;51.418;7.286;2023-08-31T15:07:24;7.33;;;3.43;;